createdAt,value
2017-09-18T00:00:22.596Z,20.10
2017-09-18T00:02:51.047Z,19.13
2017-09-18T00:05:19.512Z,17.47
2017-09-18T00:07:47.996Z,18.90
2017-09-18T00:10:16.480Z,18.80
2017-09-18T00:12:44.931Z,20.40
2017-09-18T00:15:14.135Z,17.50
2017-09-18T00:17:43.353Z,20.87
2017-09-18T00:20:11.775Z,18.97
2017-09-18T00:22:40.329Z,19.90
2017-09-18T00:25:08.763Z,17.50
2017-09-18T00:27:37.224Z,17.10
2017-09-18T00:30:05.649Z,16.20
2017-09-18T00:32:34.868Z,15.17
2017-09-18T00:35:03.304Z,17.20
2017-09-18T00:37:31.785Z,16.90
2017-09-18T00:40:00.980Z,19.10
2017-09-18T00:42:30.228Z,20.13
2017-09-18T00:44:58.684Z,19.63
2017-09-18T00:47:27.871Z,19.17
2017-09-18T00:49:56.319Z,32.10
2017-09-18T00:52:24.744Z,20.37
2017-09-18T00:54:53.961Z,32.73
2017-09-18T00:57:22.392Z,23.03
2017-09-18T00:59:50.841Z,20.70
2017-09-18T01:02:19.268Z,27.63
2017-09-18T01:04:47.724Z,26.70
2017-09-18T01:07:16.165Z,26.20
2017-09-18T01:09:44.656Z,33.27
2017-09-18T01:12:13.079Z,19.47
2017-09-18T01:14:41.536Z,40.83
2017-09-18T01:17:09.968Z,27.60
2017-09-18T01:19:39.179Z,23.20
2017-09-18T01:22:08.375Z,21.30
2017-09-18T01:24:37.691Z,19.20
2017-09-18T01:27:06.180Z,15.07
2017-09-18T01:29:34.664Z,17.80
2017-09-18T01:32:03.091Z,26.30
2017-09-18T01:34:31.627Z,18.57
2017-09-18T01:37:00.059Z,17.17
2017-09-18T01:39:28.488Z,26.33
2017-09-18T01:41:56.971Z,20.90
2017-09-18T01:44:25.400Z,17.53
2017-09-18T01:46:53.841Z,19.10
2017-09-18T01:49:22.272Z,21.03
2017-09-18T01:51:50.724Z,22.20
2017-09-18T01:54:19.157Z,35.13
2017-09-18T01:56:48.361Z,13.90
2017-09-18T01:59:17.551Z,18.33
2017-09-18T02:01:46.770Z,13.90
2017-09-18T02:04:15.196Z,17.23
2017-09-18T02:06:43.736Z,13.93
2017-09-18T02:09:12.216Z,23.20
2017-09-18T02:11:40.691Z,23.60
2017-09-18T02:14:09.111Z,20.00
2017-09-18T02:16:37.664Z,15.27
2017-09-18T02:19:06.083Z,16.07
2017-09-18T02:21:34.527Z,15.70
2017-09-18T02:24:03.003Z,16.67
2017-09-18T02:26:31.492Z,15.80
2017-09-18T02:28:59.910Z,15.73
2017-09-18T02:31:28.460Z,19.23
2017-09-18T02:33:56.887Z,16.23
2017-09-18T02:36:26.096Z,17.17
2017-09-18T02:38:55.293Z,14.53
2017-09-18T02:41:23.764Z,11.80
2017-09-18T02:43:52.187Z,14.33
2017-09-18T02:46:21.080Z,15.03
2017-09-18T02:48:49.567Z,15.13
2017-09-18T02:51:18.051Z,12.70
2017-09-18T02:53:46.500Z,17.00
2017-09-18T02:56:15.691Z,17.90
2017-09-18T02:58:44.207Z,13.37
2017-09-18T03:01:12.631Z,15.70
2017-09-18T03:03:41.075Z,16.07
2017-09-18T03:06:09.559Z,12.57
2017-09-18T03:08:38.039Z,23.63
2017-09-18T03:11:06.458Z,15.37
2017-09-18T03:13:34.903Z,14.17
2017-09-18T03:16:03.323Z,17.57
2017-09-18T03:18:31.776Z,17.87
2017-09-18T03:21:00.203Z,21.37
2017-09-18T03:23:28.647Z,44.20
2017-09-18T03:25:57.102Z,48.43
2017-09-18T03:28:25.586Z,97.43
2017-09-18T03:30:54.018Z,165.13
2017-09-18T03:33:23.972Z,110.23
2017-09-18T03:35:53.168Z,153.23
2017-09-18T03:38:22.371Z,78.47
2017-09-18T03:40:51.583Z,136.47
2017-09-18T03:43:20.031Z,123.60
2017-09-18T03:45:49.226Z,114.37
2017-09-18T03:48:17.679Z,128.17
2017-09-18T03:50:46.118Z,264.00
2017-09-18T03:53:14.611Z,93.37
2017-09-18T03:55:43.059Z,68.53
2017-09-18T03:58:12.247Z,72.10
2017-09-18T04:00:40.686Z,89.67
2017-09-18T04:03:09.106Z,48.37
2017-09-18T04:05:37.631Z,103.67
2017-09-18T04:08:06.057Z,63.87
2017-09-18T04:10:34.514Z,170.73
2017-09-18T04:13:02.979Z,55.43
2017-09-18T04:15:31.459Z,69.03
2017-09-18T04:17:59.888Z,51.77
2017-09-18T04:20:29.094Z,59.40
2017-09-18T04:22:58.284Z,74.83
2017-09-18T04:25:27.500Z,85.63
2017-09-18T04:27:56.019Z,47.53
2017-09-18T04:30:24.498Z,48.07
2017-09-18T04:32:52.923Z,48.27
2017-09-18T04:35:21.371Z,50.07
2017-09-18T04:37:49.799Z,43.50
2017-09-18T04:40:19.751Z,52.17
2017-09-18T04:42:48.959Z,48.20
2017-09-18T04:45:17.413Z,60.60
2017-09-18T04:47:46.599Z,63.57
2017-09-18T04:50:15.831Z,79.43
2017-09-18T04:52:44.319Z,123.07
2017-09-18T04:55:12.747Z,61.73
2017-09-18T04:57:41.952Z,71.57
2017-09-18T05:00:11.224Z,69.57
2017-09-18T05:02:39.671Z,69.40
2017-09-18T05:05:08.859Z,57.03
2017-09-18T05:07:38.071Z,51.63
2017-09-18T05:10:06.495Z,47.70
2017-09-18T05:12:34.939Z,58.17
2017-09-18T05:15:03.355Z,53.73
2017-09-18T05:17:31.809Z,62.70
2017-09-18T05:20:00.230Z,49.30
2017-09-18T05:22:28.679Z,39.97
2017-09-18T05:24:57.151Z,37.30
2017-09-18T05:27:25.627Z,32.50
2017-09-18T05:29:54.050Z,52.53
2017-09-18T05:32:22.496Z,74.27
2017-09-18T05:34:50.930Z,42.10
2017-09-18T05:37:20.143Z,37.07
2017-09-18T05:39:49.567Z,34.90
2017-09-18T05:42:18.764Z,32.97
2017-09-18T05:44:47.303Z,33.27
2017-09-18T05:47:15.747Z,54.43
2017-09-18T05:49:44.171Z,62.97
2017-09-18T05:52:13.419Z,34.97
2017-09-18T05:54:41.843Z,66.23
2017-09-18T05:57:10.283Z,65.57
2017-09-18T05:59:38.706Z,103.17
2017-09-18T06:02:07.151Z,138.40
2017-09-18T06:04:35.627Z,51.67
2017-09-18T06:07:04.080Z,35.10
2017-09-18T06:09:33.276Z,50.83
2017-09-18T06:12:02.496Z,41.53
2017-09-18T06:14:30.927Z,52.47
2017-09-18T06:16:59.350Z,51.20
2017-09-18T06:19:28.671Z,35.73
2017-09-18T06:21:57.147Z,34.07
2017-09-18T06:24:25.630Z,39.13
2017-09-18T06:26:54.115Z,30.37
2017-09-18T06:29:22.592Z,34.37
2017-09-18T06:31:51.060Z,31.50
2017-09-18T06:34:20.271Z,31.93
2017-09-18T06:36:48.699Z,31.30
2017-09-18T06:39:17.144Z,38.03
2017-09-18T06:41:45.562Z,30.60
2017-09-18T06:44:14.108Z,44.33
2017-09-18T06:46:42.588Z,32.83
2017-09-18T06:49:11.073Z,42.47
2017-09-18T06:51:39.500Z,31.73
2017-09-18T06:54:07.943Z,25.97
2017-09-18T06:56:36.411Z,28.77
2017-09-18T06:59:04.852Z,26.00
2017-09-18T07:01:34.147Z,24.93
2017-09-18T07:04:02.607Z,26.03
2017-09-18T07:06:31.036Z,29.47
2017-09-18T07:09:00.246Z,34.50
2017-09-18T07:11:28.675Z,25.83
2017-09-18T07:13:57.219Z,30.03
2017-09-18T07:16:25.652Z,30.10
2017-09-18T07:18:54.106Z,38.07
2017-09-18T07:21:22.535Z,30.17
2017-09-18T07:23:51.776Z,39.17
2017-09-18T07:26:20.247Z,30.00
2017-09-18T07:28:48.680Z,30.07
2017-09-18T07:31:17.127Z,33.67
2017-09-18T07:33:45.561Z,29.70
2017-09-18T07:36:14.780Z,32.83
2017-09-18T07:38:43.266Z,30.20
2017-09-18T07:41:11.711Z,29.07
2017-09-18T07:43:40.235Z,28.47
2017-09-18T07:46:08.734Z,35.10
2017-09-18T07:48:37.168Z,33.17
2017-09-18T07:51:06.503Z,33.83
2017-09-18T07:53:34.932Z,26.50
2017-09-18T07:56:03.378Z,32.40
2017-09-18T07:58:31.844Z,34.90
2017-09-18T08:01:02.662Z,30.53
2017-09-18T08:03:31.883Z,28.93
2017-09-18T08:06:00.332Z,30.30
2017-09-18T08:08:29.522Z,41.73
2017-09-18T08:10:57.975Z,25.77
2017-09-18T08:13:26.429Z,30.10
2017-09-18T08:15:54.866Z,34.50
2017-09-18T08:18:23.383Z,27.17
2017-09-18T08:20:51.828Z,27.93
2017-09-18T08:23:20.352Z,35.30
2017-09-18T08:25:48.811Z,26.00
2017-09-18T08:28:18.007Z,36.33
2017-09-18T08:30:47.228Z,32.77
2017-09-18T08:33:15.711Z,30.07
2017-09-18T08:35:44.195Z,25.50
2017-09-18T08:38:12.678Z,28.00
2017-09-18T08:40:41.159Z,29.57
2017-09-18T08:43:09.611Z,26.60
2017-09-18T08:45:38.843Z,36.40
2017-09-18T08:48:07.286Z,27.90
2017-09-18T08:50:36.511Z,28.53
2017-09-18T08:53:05.003Z,28.00
2017-09-18T08:55:33.446Z,26.60
2017-09-18T08:58:01.920Z,31.83
2017-09-18T09:00:30.351Z,27.10
2017-09-18T09:02:58.800Z,31.77
2017-09-18T09:05:27.995Z,26.30
2017-09-18T09:07:57.224Z,26.17
2017-09-18T09:10:25.651Z,27.53
2017-09-18T09:12:54.103Z,24.20
2017-09-18T09:15:22.530Z,19.77
2017-09-18T09:17:51.004Z,21.40
2017-09-18T09:20:19.430Z,20.77
2017-09-18T09:22:47.850Z,20.73
2017-09-18T09:25:16.407Z,23.27
2017-09-18T09:27:44.884Z,24.10
2017-09-18T09:30:13.342Z,22.33
2017-09-18T09:32:42.575Z,24.67
2017-09-18T09:35:11.038Z,23.37
2017-09-18T09:37:39.523Z,20.80
2017-09-18T09:40:07.981Z,25.90
2017-09-18T09:42:37.175Z,19.53
2017-09-18T09:45:06.391Z,16.40
2017-09-18T09:47:34.892Z,21.20
2017-09-18T09:50:03.335Z,21.10
2017-09-18T09:52:32.582Z,16.20
2017-09-18T09:55:01.040Z,22.97
2017-09-18T09:57:29.532Z,24.50
2017-09-18T09:59:57.983Z,18.63
2017-09-18T10:02:27.193Z,17.30
2017-09-18T10:04:56.410Z,14.40
2017-09-18T10:07:24.878Z,19.40
2017-09-18T10:09:53.376Z,18.00
2017-09-18T10:12:21.873Z,14.30
2017-09-18T10:14:50.333Z,20.87
2017-09-18T10:17:18.765Z,11.33
2017-09-18T10:19:47.295Z,7.90
2017-09-18T10:22:15.721Z,7.30
2017-09-18T10:24:44.168Z,7.80
2017-09-18T10:27:12.615Z,11.77
2017-09-18T10:29:41.820Z,10.43
2017-09-18T10:32:11.139Z,9.60
2017-09-18T10:34:39.555Z,8.80
2017-09-18T10:37:08.109Z,11.53
2017-09-18T10:39:36.587Z,14.93
2017-09-18T10:42:05.075Z,11.13
2017-09-18T10:44:33.494Z,7.13
2017-09-18T10:47:01.939Z,11.37
2017-09-18T10:49:30.369Z,8.97
2017-09-18T10:51:58.819Z,12.47
2017-09-18T10:54:27.280Z,9.67
2017-09-18T10:56:55.736Z,11.03
2017-09-18T10:59:24.955Z,16.20
2017-09-18T11:01:53.420Z,15.27
2017-09-18T11:04:22.617Z,8.97
2017-09-18T11:06:51.943Z,8.80
2017-09-18T11:09:20.392Z,13.40
2017-09-18T11:11:49.616Z,14.80
2017-09-18T11:14:18.113Z,9.00
2017-09-18T11:16:46.604Z,9.70
2017-09-18T11:19:15.028Z,13.97
2017-09-18T11:21:43.489Z,10.60
2017-09-18T11:24:11.911Z,7.40
2017-09-18T11:26:41.114Z,6.87
2017-09-18T11:29:10.299Z,5.93
2017-09-18T11:31:39.503Z,6.40
2017-09-18T11:34:08.728Z,5.57
2017-09-18T11:36:37.176Z,8.97
2017-09-18T11:39:06.363Z,4.40
2017-09-18T11:41:34.820Z,6.60
2017-09-18T11:44:03.239Z,3.73
2017-09-18T11:46:32.436Z,3.57
2017-09-18T11:49:01.663Z,4.37
2017-09-18T11:51:30.084Z,3.13
2017-09-18T11:53:58.533Z,3.20
2017-09-18T11:56:27.027Z,3.93
2017-09-18T11:58:55.487Z,6.03
2017-09-18T12:01:23.983Z,6.50
2017-09-18T12:03:52.419Z,4.40
2017-09-18T12:06:22.357Z,7.30
2017-09-18T12:08:51.571Z,4.40
2017-09-18T12:11:19.996Z,4.17
2017-09-18T12:13:48.531Z,3.00
2017-09-18T12:16:16.957Z,3.17
2017-09-18T12:18:45.500Z,3.80
2017-09-18T12:21:13.978Z,7.17
2017-09-18T12:23:42.420Z,2.83
2017-09-18T12:26:10.939Z,3.00
2017-09-18T12:28:39.445Z,4.10
2017-09-18T12:31:07.928Z,3.43
2017-09-18T12:33:36.372Z,4.60
2017-09-18T12:36:05.592Z,4.27
2017-09-18T12:38:34.035Z,5.80
2017-09-18T12:41:03.219Z,3.13
2017-09-18T12:43:31.666Z,5.80
2017-09-18T12:46:00.100Z,11.23
2017-09-18T12:48:29.311Z,2.63
2017-09-18T12:50:58.503Z,3.90
2017-09-18T12:53:27.747Z,5.33
2017-09-18T12:55:56.167Z,2.10
2017-09-18T12:58:25.428Z,2.00
2017-09-18T13:00:53.910Z,1.80
2017-09-18T13:03:22.377Z,3.33
2017-09-18T13:05:50.859Z,2.80
2017-09-18T13:08:19.299Z,2.30
2017-09-18T13:10:47.734Z,4.10
2017-09-18T13:13:16.199Z,6.30
2017-09-18T13:15:44.629Z,2.47
2017-09-18T13:18:13.051Z,2.43
2017-09-18T13:20:41.488Z,2.53
2017-09-18T13:23:10.028Z,2.30
2017-09-18T13:25:38.476Z,2.33
2017-09-18T13:28:07.672Z,2.20
2017-09-18T13:30:36.879Z,1.97
2017-09-18T13:33:06.067Z,2.53
2017-09-18T13:35:34.506Z,2.70
2017-09-18T13:38:02.958Z,1.63
2017-09-18T13:40:31.404Z,1.57
2017-09-18T13:42:59.828Z,1.77
2017-09-18T13:45:28.327Z,1.87
2017-09-18T13:47:56.797Z,1.87
2017-09-18T13:50:25.280Z,2.07
2017-09-18T13:52:53.695Z,3.50
2017-09-18T13:55:22.231Z,2.17
2017-09-18T13:57:50.650Z,2.40
2017-09-18T14:00:19.077Z,2.70
2017-09-18T14:02:48.397Z,1.97
2017-09-18T14:05:16.887Z,4.93
2017-09-18T14:07:45.342Z,2.87
2017-09-18T14:10:14.533Z,1.50
2017-09-18T14:12:43.749Z,1.20
2017-09-18T14:15:12.944Z,2.60
2017-09-18T14:17:42.266Z,1.83
2017-09-18T14:20:10.687Z,2.03
2017-09-18T14:22:39.131Z,1.00
2017-09-18T14:25:07.560Z,1.43
2017-09-18T14:27:36.007Z,1.77
2017-09-18T14:30:04.436Z,1.00
2017-09-18T14:32:33.652Z,0.90
2017-09-18T14:35:02.852Z,1.17
2017-09-18T14:37:32.160Z,1.10
2017-09-18T14:40:00.580Z,1.70
2017-09-18T14:42:29.022Z,1.70
2017-09-18T14:44:57.443Z,3.43
2017-09-18T14:47:25.883Z,7.17
2017-09-18T14:49:54.303Z,1.53
2017-09-18T14:52:22.852Z,2.77
2017-09-18T14:54:51.280Z,2.20
2017-09-18T14:57:19.710Z,1.40
2017-09-18T14:59:48.192Z,1.37
2017-09-18T15:02:16.644Z,1.30
2017-09-18T15:04:45.885Z,1.70
2017-09-18T15:07:14.356Z,3.33
2017-09-18T15:09:42.835Z,1.43
2017-09-18T15:12:11.326Z,2.00
2017-09-18T15:14:39.747Z,2.10
2017-09-18T15:17:08.216Z,2.10
2017-09-18T15:19:36.639Z,2.00
2017-09-18T15:22:05.823Z,1.97
2017-09-18T15:24:34.354Z,1.53
2017-09-18T15:27:02.787Z,1.93
2017-09-18T15:29:31.231Z,2.60
2017-09-18T15:32:00.597Z,2.60
2017-09-18T15:34:29.800Z,2.17
2017-09-18T15:36:58.987Z,2.60
2017-09-18T15:39:28.187Z,2.50
2017-09-18T15:41:57.380Z,1.80
2017-09-18T15:44:26.596Z,1.97
2017-09-18T15:46:55.082Z,1.43
2017-09-18T15:49:23.607Z,2.40
2017-09-18T15:51:52.048Z,4.40
2017-09-18T15:54:20.501Z,2.10
2017-09-18T15:56:48.923Z,2.17
2017-09-18T15:59:17.367Z,5.17
2017-09-18T16:01:46.591Z,3.07
2017-09-18T16:04:15.040Z,1.73
2017-09-18T16:06:43.559Z,1.70
2017-09-18T16:09:12.032Z,4.20
2017-09-18T16:11:40.523Z,1.77
2017-09-18T16:14:08.943Z,3.10
2017-09-18T16:16:37.483Z,2.07
2017-09-18T16:19:05.976Z,1.80
2017-09-18T16:21:34.415Z,1.80
2017-09-18T16:24:02.938Z,2.97
2017-09-18T16:26:31.380Z,1.50
2017-09-18T16:28:59.812Z,3.63
2017-09-18T16:31:28.281Z,3.33
2017-09-18T16:33:56.708Z,2.47
2017-09-18T16:36:25.235Z,2.10
2017-09-18T16:38:53.659Z,2.30
2017-09-18T16:41:22.107Z,10.43
2017-09-18T16:43:50.532Z,2.93
2017-09-18T16:46:19.078Z,2.70
2017-09-18T16:48:47.552Z,3.00
2017-09-18T16:51:16.000Z,2.67
2017-09-18T16:53:45.192Z,3.17
2017-09-18T16:56:13.717Z,3.33
2017-09-18T16:58:42.196Z,2.80
2017-09-18T17:01:10.672Z,3.57
2017-09-18T17:03:39.091Z,5.33
2017-09-18T17:06:07.645Z,4.13
2017-09-18T17:08:36.063Z,5.30
2017-09-18T17:11:04.503Z,5.50
2017-09-18T17:13:32.933Z,4.07
2017-09-18T17:16:01.380Z,7.27
2017-09-18T17:18:29.803Z,8.93
2017-09-18T17:20:58.317Z,6.47
2017-09-18T17:23:26.812Z,13.90
2017-09-18T17:25:55.267Z,5.90
2017-09-18T17:28:24.508Z,5.33
2017-09-18T17:30:52.934Z,5.83
2017-09-18T17:33:21.465Z,10.90
2017-09-18T17:35:49.940Z,7.93
2017-09-18T17:38:18.388Z,11.20
2017-09-18T17:40:47.619Z,10.43
2017-09-18T17:43:16.104Z,7.00
2017-09-18T17:45:44.548Z,10.50
2017-09-18T17:48:13.764Z,7.20
2017-09-18T17:50:42.970Z,10.40
2017-09-18T17:53:11.464Z,7.17
2017-09-18T17:55:39.889Z,8.03
2017-09-18T17:58:08.429Z,9.40
2017-09-18T18:00:36.903Z,10.37
2017-09-18T18:03:05.352Z,9.30
2017-09-18T18:05:33.876Z,10.47
2017-09-18T18:08:02.329Z,6.70
2017-09-18T18:10:31.555Z,13.93
2017-09-18T18:13:00.052Z,9.47
2017-09-18T18:15:28.520Z,8.37
2017-09-18T18:17:56.983Z,11.33
2017-09-18T18:20:26.176Z,11.40
2017-09-18T18:22:55.358Z,7.57
2017-09-18T18:25:23.884Z,13.00
2017-09-18T18:27:52.363Z,9.60
2017-09-18T18:30:20.814Z,8.57
2017-09-18T18:32:50.054Z,7.03
2017-09-18T18:35:18.500Z,7.67
2017-09-18T18:37:47.686Z,13.40
2017-09-18T18:40:16.913Z,17.87
2017-09-18T18:42:45.344Z,7.07
2017-09-18T18:45:13.892Z,10.87
2017-09-18T18:47:42.323Z,9.27
2017-09-18T18:50:10.768Z,9.83
2017-09-18T18:52:39.201Z,12.33
2017-09-18T18:55:08.442Z,9.67
2017-09-18T18:57:36.876Z,14.13
2017-09-18T19:00:06.096Z,7.30
2017-09-18T19:02:34.627Z,7.47
2017-09-18T19:05:03.169Z,9.50
2017-09-18T19:07:31.592Z,8.13
2017-09-18T19:10:00.036Z,8.23
2017-09-18T19:12:28.493Z,8.83
2017-09-18T19:14:57.725Z,18.67
2017-09-18T19:17:26.194Z,14.37
2017-09-18T19:19:54.627Z,13.33
2017-09-18T19:22:23.071Z,8.90
2017-09-18T19:24:51.509Z,18.30
2017-09-18T19:27:20.843Z,56.20
2017-09-18T19:29:49.271Z,15.27
2017-09-18T19:32:17.722Z,18.03
2017-09-18T19:34:46.276Z,10.00
2017-09-18T19:37:15.487Z,20.00
2017-09-18T19:39:43.963Z,18.77
2017-09-18T19:42:12.405Z,15.23
2017-09-18T19:44:40.940Z,16.30
2017-09-18T19:47:09.383Z,16.80
2017-09-18T19:49:38.579Z,15.53
2017-09-18T19:52:07.815Z,25.17
2017-09-18T19:54:36.248Z,18.70
2017-09-18T19:57:04.705Z,12.93
2017-09-18T19:59:33.161Z,22.03
2017-09-18T20:02:01.743Z,16.27
2017-09-18T20:04:30.223Z,15.53
2017-09-18T20:06:58.652Z,10.37
2017-09-18T20:09:27.103Z,14.97
2017-09-18T20:11:55.535Z,14.97
2017-09-18T20:14:24.752Z,28.93
2017-09-18T20:16:53.959Z,15.90
2017-09-18T20:19:22.407Z,10.00
2017-09-18T20:21:50.840Z,22.00
2017-09-18T20:24:19.312Z,17.63
2017-09-18T20:26:47.788Z,15.93
2017-09-18T20:29:16.235Z,14.90
2017-09-18T20:31:44.664Z,13.30
2017-09-18T20:34:13.108Z,19.50
2017-09-18T20:36:42.454Z,13.97
2017-09-18T20:39:10.903Z,10.43
2017-09-18T20:41:40.092Z,9.97
2017-09-18T20:44:09.316Z,15.60
2017-09-18T20:46:37.804Z,8.83
2017-09-18T20:49:06.256Z,10.20
2017-09-18T20:51:35.447Z,14.03
2017-09-18T20:54:04.883Z,10.30
2017-09-18T20:56:33.372Z,8.50
2017-09-18T20:59:01.815Z,10.83
2017-09-18T21:01:31.048Z,6.97
2017-09-18T21:03:59.538Z,10.33
2017-09-18T21:06:27.964Z,9.07
2017-09-18T21:08:56.509Z,10.40
2017-09-18T21:11:24.937Z,10.67
2017-09-18T21:13:54.176Z,14.57
2017-09-18T21:16:22.640Z,9.73
2017-09-18T21:18:51.876Z,6.50
2017-09-18T21:21:20.307Z,7.23
2017-09-18T21:23:49.500Z,6.33
2017-09-18T21:26:18.709Z,7.80
2017-09-18T21:28:47.943Z,6.30
2017-09-18T21:31:16.407Z,6.13
2017-09-18T21:33:44.897Z,10.43
2017-09-18T21:36:13.348Z,7.47
2017-09-18T21:38:42.544Z,7.07
2017-09-18T21:41:11.752Z,6.20
2017-09-18T21:43:40.950Z,8.37
2017-09-18T21:46:10.163Z,10.83
2017-09-18T21:48:38.582Z,7.70
2017-09-18T21:51:07.029Z,7.63
2017-09-18T21:53:35.456Z,8.70
2017-09-18T21:56:03.896Z,9.17
2017-09-18T21:58:32.320Z,9.40
2017-09-18T22:01:00.775Z,15.10
2017-09-18T22:03:29.195Z,10.03
2017-09-18T22:05:57.651Z,14.17
2017-09-18T22:08:26.075Z,7.77
2017-09-18T22:10:55.288Z,8.97
2017-09-18T22:13:23.774Z,11.73
2017-09-18T22:15:52.269Z,11.90
2017-09-18T22:18:20.696Z,8.30
2017-09-18T22:20:49.229Z,8.47
2017-09-18T22:23:17.715Z,7.97
2017-09-18T22:25:46.155Z,12.57
2017-09-18T22:28:14.587Z,7.50
2017-09-18T22:30:43.031Z,8.33
2017-09-18T22:33:12.271Z,13.90
2017-09-18T22:35:40.715Z,8.17
2017-09-18T22:38:09.905Z,9.20
2017-09-18T22:40:39.133Z,16.10
2017-09-18T22:43:07.555Z,10.40
2017-09-18T22:45:35.991Z,8.07
2017-09-18T22:48:04.494Z,8.47
2017-09-18T22:50:32.928Z,7.97
2017-09-18T22:53:02.142Z,10.20
2017-09-18T22:55:30.611Z,7.13
2017-09-18T22:57:59.839Z,8.97
2017-09-18T23:00:28.316Z,7.33
2017-09-18T23:02:56.805Z,8.50
2017-09-18T23:05:25.227Z,9.07
2017-09-18T23:07:53.681Z,12.17
2017-09-18T23:10:22.157Z,12.17
2017-09-18T23:12:50.604Z,8.57
2017-09-18T23:15:19.800Z,8.37
2017-09-18T23:17:49.022Z,7.40
2017-09-18T23:20:17.447Z,11.10
2017-09-18T23:22:45.987Z,7.63
2017-09-18T23:25:14.471Z,6.57
2017-09-18T23:27:42.955Z,8.50
2017-09-18T23:30:11.380Z,8.97
2017-09-18T23:32:39.841Z,11.07
2017-09-18T23:35:08.259Z,8.67
2017-09-18T23:37:36.708Z,8.57
2017-09-18T23:40:05.131Z,11.33
2017-09-18T23:42:34.335Z,7.07
2017-09-18T23:45:03.523Z,7.50
2017-09-18T23:47:32.729Z,8.63
2017-09-18T23:50:02.340Z,7.57
2017-09-18T23:52:31.660Z,8.70
2017-09-18T23:55:00.148Z,8.30
2017-09-18T23:57:28.599Z,11.47
2017-09-18T23:59:57.822Z,8.40
